Time;durP1;ratioP1;P1;durP2;ratioP2;P2;SDS_P1;SDS_P2;PMS_P1;PMS_P2;Temp;Humidity;BMP_temperature;BMP_pressure;BME280_temperature;BME280_humidity;BME280_pressure;Samples;Min_cycle;Max_cycle;Signal;HPM_P1;HPM_P2
2022/03/17 00:02:24;;;;;;;46.17;42.67;;;;;;;2.99;100.00;102238.78;5004043;28;20046;-81
2022/03/17 00:04:51;;;;;;;52.15;48.00;;;;;;;2.46;100.00;102241.13;5010275;28;20651;-83
2022/03/17 00:07:18;;;;;;;54.22;49.50;;;;;;;2.23;100.00;102242.81;5007398;28;20057;-80
2022/03/17 00:09:45;;;;;;;41.75;38.17;;;;;;;2.18;100.00;102255.44;5008684;28;20054;-83
2022/03/17 00:12:13;;;;;;;47.05;43.03;;;;;;;2.09;100.00;102261.34;5005071;28;20057;-83
2022/03/17 00:14:39;;;;;;;54.15;49.85;;;;;;;1.93;100.00;102264.25;5003659;28;20394;-81
2022/03/17 00:17:08;;;;;;;51.60;47.67;;;;;;;1.96;100.00;102266.66;5009985;28;20533;-80
2022/03/17 00:19:36;;;;;;;53.22;49.20;;;;;;;2.15;100.00;102256.50;5007422;28;20046;-80
2022/03/17 00:22:08;;;;;;;54.30;50.20;;;;;;;2.17;100.00;102265.09;4997796;28;20485;-80
2022/03/17 00:24:36;;;;;;;47.95;44.60;;;;;;;2.23;100.00;102276.91;5001569;28;20050;-81
2022/03/17 00:27:05;;;;;;;50.08;46.58;;;;;;;2.01;100.00;102273.25;5004018;28;20053;-82
2022/03/17 00:29:33;;;;;;;54.08;50.17;;;;;;;1.99;100.00;102272.50;5010037;28;20054;-79
2022/03/17 00:31:59;;;;;;;53.95;49.90;;;;;;;2.46;100.00;102277.84;5009248;28;20050;-83
2022/03/17 00:34:28;;;;;;;53.20;49.13;;;;;;;2.21;100.00;102277.03;5012850;28;20136;-83
2022/03/17 00:36:55;;;;;;;53.03;49.28;;;;;;;2.25;100.00;102272.41;5012764;28;20108;-79
2022/03/17 00:39:21;;;;;;;56.65;52.45;;;;;;;1.81;100.00;102272.06;5010721;28;20054;-82
2022/03/17 00:41:49;;;;;;;50.63;46.42;;;;;;;1.70;100.00;102272.00;5011921;28;20210;-80
2022/03/17 00:44:16;;;;;;;53.25;49.28;;;;;;;1.88;100.00;102277.72;5010188;28;20120;-78
2022/03/17 00:46:43;;;;;;;57.38;53.10;;;;;;;1.84;100.00;102271.00;5012473;28;20054;-80
2022/03/17 00:49:12;;;;;;;51.45;47.60;;;;;;;1.85;100.00;102277.94;5009967;28;20108;-81
2022/03/17 00:51:40;;;;;;;57.28;53.17;;;;;;;1.85;100.00;102288.41;5007094;28;20061;-82
2022/03/17 00:54:07;;;;;;;53.47;49.50;;;;;;;2.29;100.00;102286.94;5008693;28;20050;-79
2022/03/17 00:56:35;;;;;;;57.05;52.85;;;;;;;1.69;100.00;102279.97;5007794;28;20054;-83
2022/03/17 00:59:01;;;;;;;52.47;49.10;;;;;;;1.98;100.00;102286.56;5001794;28;20284;-80
2022/03/17 01:01:28;;;;;;;58.72;54.67;;;;;;;1.69;100.00;102293.06;5011809;28;20047;-80
2022/03/17 01:03:55;;;;;;;51.63;48.08;;;;;;;1.61;100.00;102291.00;5008362;28;20050;-79
2022/03/17 01:06:22;;;;;;;46.50;42.90;;;;;;;1.63;100.00;102286.47;5009065;28;20046;-80
2022/03/17 01:08:50;;;;;;;49.47;46.03;;;;;;;1.73;100.00;102292.75;5006650;28;20540;-80
2022/03/17 01:11:17;;;;;;;50.92;47.53;;;;;;;1.50;100.00;102294.38;5007534;28;20081;-80
2022/03/17 01:13:44;;;;;;;44.25;41.08;;;;;;;2.04;100.00;102307.09;5008221;28;20046;-82
2022/03/17 01:16:11;;;;;;;50.20;47.03;;;;;;;2.06;100.00;102304.38;5007930;28;20046;-79
2022/03/17 01:18:38;;;;;;;55.17;51.17;;;;;;;1.87;100.00;102304.00;5005285;28;20055;-79
2022/03/17 01:21:06;;;;;;;44.63;41.67;;;;;;;1.92;100.00;102301.91;5011264;28;20046;-79
2022/03/17 01:23:32;;;;;;;45.58;42.28;;;;;;;2.03;100.00;102294.94;5013330;28;20053;-82
2022/03/17 01:26:01;;;;;;;48.60;45.15;;;;;;;2.08;100.00;102293.75;5010074;28;20054;-81
2022/03/17 01:28:27;;;;;;;46.42;43.22;;;;;;;2.19;100.00;102301.69;5006836;28;20054;-80
2022/03/17 01:30:54;;;;;;;41.75;39.03;;;;;;;2.08;100.00;102297.22;5015118;28;20057;-83
2022/03/17 01:33:21;;;;;;;45.97;42.90;;;;;;;1.78;100.00;102303.72;5005466;28;20449;-83
2022/03/17 01:35:48;;;;;;;42.55;39.70;;;;;;;1.94;100.00;102315.75;5013507;28;20050;-81
2022/03/17 01:38:14;;;;;;;42.10;39.10;;;;;;;1.56;100.00;102301.78;5010198;28;20478;-82
2022/03/17 01:40:41;;;;;;;47.33;43.95;;;;;;;2.00;100.00;102305.66;5009596;28;20046;-80
2022/03/17 01:43:09;;;;;;;45.42;42.63;;;;;;;2.22;100.00;102299.66;5012200;28;20045;-80
2022/03/17 01:45:37;;;;;;;41.20;38.78;;;;;;;1.85;100.00;102298.91;5014903;28;20050;-82
2022/03/17 01:48:04;;;;;;;43.10;40.00;;;;;;;1.58;100.00;102296.47;5005854;28;20550;-82
2022/03/17 01:50:31;;;;;;;41.47;38.80;;;;;;;1.42;100.00;102314.19;5013263;28;20054;-80
2022/03/17 01:52:58;;;;;;;44.17;41.47;;;;;;;2.05;100.00;102311.38;5006811;28;20054;-83
2022/03/17 01:55:25;;;;;;;41.97;38.78;;;;;;;1.85;100.00;102312.00;5009959;28;20116;-81
2022/03/17 01:57:51;;;;;;;43.50;40.85;;;;;;;2.16;100.00;102321.09;5012050;28;20053;-82
2022/03/17 02:00:22;;;;;;;40.70;38.00;;;;;;;1.76;100.00;102321.34;5005843;28;20057;-80
2022/03/17 02:02:51;;;;;;;39.08;36.33;;;;;;;1.76;100.00;102318.72;5011852;28;20052;-79
2022/03/17 02:05:18;;;;;;;40.17;37.38;;;;;;;1.51;100.00;102330.09;5004120;28;20047;-79
2022/03/17 02:07:48;;;;;;;47.03;44.28;;;;;;;1.64;100.00;102342.34;5007126;28;20128;-79
2022/03/17 02:10:14;;;;;;;42.42;39.92;;;;;;;1.63;100.00;102335.41;5009560;28;20050;-83
2022/03/17 02:15:27;;;;;;;49.33;45.88;;;;;;;1.64;100.00;102337.09;5002148;28;20057;-83
2022/03/17 02:17:55;;;;;;;46.08;42.92;;;;;;;1.62;100.00;102339.81;5011473;28;20463;-83
2022/03/17 02:20:24;;;;;;;46.30;43.40;;;;;;;1.73;100.00;102339.06;5011553;28;20046;-79
2022/03/17 02:22:53;;;;;;;46.80;44.03;;;;;;;1.27;100.00;102347.50;5005136;28;20116;-82
2022/03/17 02:25:33;;;;;;;53.28;50.28;;;;;;;1.07;100.00;102360.16;5009551;28;20063;-82
2022/03/17 02:28:02;;;;;;;49.55;46.20;;;;;;;1.14;100.00;102366.66;5007746;28;20049;-82
2022/03/17 02:30:30;;;;;;;47.42;44.30;;;;;;;1.35;100.00;102363.53;5000563;28;20062;-82
2022/03/17 02:33:01;;;;;;;51.78;48.25;;;;;;;1.12;100.00;102360.72;5002779;28;20046;-80
2022/03/17 02:35:29;;;;;;;44.67;41.90;;;;;;;0.88;100.00;102360.56;5005234;28;20516;-83
2022/03/17 02:37:56;;;;;;;50.33;47.33;;;;;;;1.28;100.00;102365.72;5006249;28;20049;-82
2022/03/17 02:40:26;;;;;;;51.58;48.45;;;;;;;1.03;100.00;102378.78;5011236;28;20057;-79
2022/03/17 02:42:53;;;;;;;43.42;40.33;;;;;;;0.79;100.00;102384.72;5011512;28;20140;-83
2022/03/17 02:45:20;;;;;;;47.90;45.10;;;;;;;1.03;100.00;102376.16;5001897;28;20482;-79
2022/03/17 02:47:47;;;;;;;45.53;42.83;;;;;;;0.84;100.00;102384.41;5007703;28;20049;-81
2022/03/17 02:50:14;;;;;;;47.05;43.95;;;;;;;0.79;100.00;102382.13;5007741;28;20120;-83
2022/03/17 02:52:42;;;;;;;45.22;41.88;;;;;;;0.81;100.00;102387.22;5002327;28;20105;-82
2022/03/17 02:55:11;;;;;;;47.22;44.22;;;;;;;0.81;100.00;102389.84;5006447;28;20112;-81
2022/03/17 02:57:40;;;;;;;48.33;45.17;;;;;;;0.84;100.00;102395.72;5001770;28;20042;-82
2022/03/17 03:02:53;;;;;;;52.22;48.53;;;;;;;1.10;100.00;102403.63;4993425;23;20059;-82
2022/03/17 03:05:20;;;;;;;49.58;46.42;;;;;;;0.73;100.00;102408.69;4972648;28;20129;-79
2022/03/17 03:07:47;;;;;;;49.25;46.40;;;;;;;0.77;100.00;102414.53;4963058;28;20085;-82
2022/03/17 03:10:14;;;;;;;49.75;46.63;;;;;;;1.12;100.00;102423.53;4967431;28;20047;-81
2022/03/17 03:12:42;;;;;;;47.33;44.45;;;;;;;1.25;100.00;102420.06;4966145;28;20485;-82
2022/03/17 03:15:09;;;;;;;43.70;40.97;;;;;;;1.02;100.00;102419.00;4969147;28;20466;-83
2022/03/17 03:17:36;;;;;;;42.78;40.17;;;;;;;1.47;100.00;102422.91;4972619;28;20054;-82
2022/03/17 03:20:03;;;;;;;45.30;42.70;;;;;;;0.86;100.00;102433.09;4972117;28;20462;-83
2022/03/17 03:22:36;;;;;;;43.58;40.85;;;;;;;0.75;100.00;102427.69;4965073;28;20456;-80
2022/03/17 03:25:04;;;;;;;40.13;37.80;;;;;;;1.21;100.00;102423.81;4971196;28;20468;-82
2022/03/17 03:27:31;;;;;;;40.95;38.25;;;;;;;0.77;100.00;102418.00;4965411;28;20047;-81
2022/03/17 03:30:00;;;;;;;41.85;38.97;;;;;;;0.97;100.00;102440.25;4967667;28;20046;-79
2022/03/17 03:32:27;;;;;;;42.35;39.30;;;;;;;0.73;100.00;102434.84;4964791;28;20046;-84
2022/03/17 03:34:55;;;;;;;41.22;38.38;;;;;;;1.03;100.00;102442.44;4964668;28;20126;-82
2022/03/17 03:37:24;;;;;;;42.30;39.50;;;;;;;0.83;100.00;102448.97;4971752;28;20097;-82
2022/03/17 03:39:52;;;;;;;42.03;39.40;;;;;;;0.80;100.00;102450.97;4971564;28;20380;-82
2022/03/17 03:42:18;;;;;;;39.78;37.03;;;;;;;0.78;100.00;102450.22;4963599;28;20043;-79
2022/03/17 03:44:45;;;;;;;42.33;38.85;;;;;;;0.71;100.00;102457.63;4974358;28;20112;-79
2022/03/17 03:47:14;;;;;;;41.10;38.28;;;;;;;0.61;100.00;102457.38;4969917;28;20117;-82
2022/03/17 03:49:41;;;;;;;39.95;37.45;;;;;;;0.71;100.00;102460.25;4967683;28;20047;-80
2022/03/17 03:52:08;;;;;;;39.70;36.88;;;;;;;0.71;100.00;102462.84;4968822;28;20055;-80
2022/03/17 03:54:36;;;;;;;41.08;38.50;;;;;;;0.71;100.00;102469.88;4970359;28;20467;-82
2022/03/17 03:57:03;;;;;;;42.80;40.08;;;;;;;0.73;100.00;102478.44;4970186;28;20475;-80
2022/03/17 03:59:31;;;;;;;43.00;39.97;;;;;;;0.72;100.00;102482.84;4964363;28;20047;-83
2022/03/17 04:01:59;;;;;;;45.08;42.25;;;;;;;0.71;100.00;102496.03;4959257;28;20055;-80
2022/03/17 04:04:28;;;;;;;43.15;40.28;;;;;;;0.70;100.00;102500.44;4963397;28;20055;-80
2022/03/17 04:06:58;;;;;;;41.30;38.30;;;;;;;0.72;100.00;102497.69;4963118;28;20117;-79
2022/03/17 04:09:27;;;;;;;39.78;37.30;;;;;;;0.72;100.00;102500.31;4966302;28;20054;-79
2022/03/17 04:11:55;;;;;;;37.58;35.17;;;;;;;0.72;100.00;102510.78;4965188;28;20056;-83
2022/03/17 04:14:22;;;;;;;43.58;40.88;;;;;;;0.66;100.00;102515.44;4968518;28;20448;-81
2022/03/17 04:16:49;;;;;;;44.63;41.90;;;;;;;0.68;100.00;102516.19;4959393;28;20067;-79
2022/03/17 04:19:16;;;;;;;47.47;44.45;;;;;;;0.65;100.00;102523.41;4962438;28;20055;-82
2022/03/17 04:21:45;;;;;;;50.13;46.70;;;;;;;0.69;100.00;102523.09;4969823;28;20047;-78
2022/03/17 04:24:12;;;;;;;47.28;43.78;;;;;;;0.67;100.00;102517.16;4968141;28;20084;-83
2022/03/17 04:26:39;;;;;;;48.20;44.78;;;;;;;0.73;100.00;102529.00;4970734;28;20059;-83
2022/03/17 04:29:06;;;;;;;42.78;39.83;;;;;;;0.83;100.00;102535.31;4973095;28;20545;-78
2022/03/17 04:31:33;;;;;;;42.97;40.13;;;;;;;0.72;100.00;102532.53;4971827;28;20085;-84
2022/03/17 04:34:00;;;;;;;43.10;40.22;;;;;;;0.83;100.00;102542.31;4968887;28;20047;-82
2022/03/17 04:36:27;;;;;;;43.53;40.10;;;;;;;0.79;100.00;102546.91;4970551;28;20117;-80
2022/03/17 04:38:55;;;;;;;42.85;39.90;;;;;;;0.79;100.00;102552.16;4965321;28;20078;-81
2022/03/17 04:41:22;;;;;;;40.47;37.67;;;;;;;0.75;100.00;102553.25;4970507;28;20046;-78
2022/03/17 04:43:49;;;;;;;40.80;38.40;;;;;;;0.75;100.00;102558.50;4971041;28;20720;-79
2022/03/17 04:46:16;;;;;;;40.63;38.10;;;;;;;0.91;100.00;102561.00;4962778;28;20472;-82
2022/03/17 04:48:43;;;;;;;39.30;36.80;;;;;;;0.88;100.00;102558.59;4971128;28;20507;-80
2022/03/17 04:51:09;;;;;;;36.90;34.50;;;;;;;0.92;100.00;102565.28;4964317;28;20105;-82
2022/03/17 04:53:36;;;;;;;37.88;35.58;;;;;;;0.88;100.00;102559.41;4966985;28;20059;-79
2022/03/17 04:56:08;;;;;;;37.30;35.00;;;;;;;1.07;100.00;102566.09;4971502;28;20394;-82
2022/03/17 04:58:36;;;;;;;37.37;34.80;;;;;;;0.94;100.00;102559.94;4971719;28;20039;-80
2022/03/17 05:01:04;;;;;;;38.08;35.38;;;;;;;1.04;100.00;102561.06;4972098;28;20058;-80
2022/03/17 05:03:32;;;;;;;39.35;36.50;;;;;;;0.96;100.00;102572.00;4970895;28;20086;-80
2022/03/17 05:05:59;;;;;;;37.53;34.90;;;;;;;0.97;100.00;102573.69;4972635;28;20059;-83
2022/03/17 05:08:26;;;;;;;38.40;35.67;;;;;;;0.96;100.00;102577.22;4970805;28;20125;-81
2022/03/17 05:10:54;;;;;;;37.53;34.90;;;;;;;1.03;100.00;102581.16;4970324;28;20121;-82
2022/03/17 05:13:23;;;;;;;37.25;34.95;;;;;;;1.08;100.00;102575.59;4971663;28;20117;-83
2022/03/17 05:15:51;;;;;;;40.28;37.72;;;;;;;0.98;100.00;102575.38;4968459;28;20498;-81
2022/03/17 05:18:19;;;;;;;38.15;35.67;;;;;;;1.65;100.00;102585.84;4971659;28;20458;-82
2022/03/17 05:20:46;;;;;;;37.72;34.92;;;;;;;1.21;100.00;102579.13;4968050;28;20047;-80
2022/03/17 05:23:15;;;;;;;37.70;35.33;;;;;;;1.18;100.00;102584.56;4967910;28;20514;-80
2022/03/17 05:25:43;;;;;;;36.38;34.03;;;;;;;1.33;100.00;102587.94;4974794;28;20058;-80
2022/03/17 05:28:10;;;;;;;37.75;35.05;;;;;;;1.32;100.00;102599.34;4976159;28;20058;-83
2022/03/17 05:30:40;;;;;;;37.83;35.53;;;;;;;1.34;100.00;102589.63;4965609;28;20136;-81
2022/03/17 05:33:07;;;;;;;37.75;35.55;;;;;;;1.34;100.00;102584.41;4971008;28;20047;-82
2022/03/17 05:35:35;;;;;;;38.10;35.45;;;;;;;1.36;100.00;102595.59;4967249;28;20051;-83
2022/03/17 05:38:02;;;;;;;38.30;34.63;;;;;;;1.41;100.00;102590.06;4967778;28;20119;-79
2022/03/17 05:40:29;;;;;;;37.05;34.50;;;;;;;1.82;100.00;102609.13;4972473;28;20055;-82
2022/03/17 05:42:58;;;;;;;41.38;37.95;;;;;;;1.30;100.00;102611.69;4966934;28;20051;-81
2022/03/17 05:45:27;;;;;;;40.08;36.88;;;;;;;1.47;100.00;102610.63;4964187;28;20047;-82
2022/03/17 05:47:57;;;;;;;39.50;36.67;;;;;;;1.57;100.00;102615.16;4966286;28;20061;-79
2022/03/17 05:50:25;;;;;;;64.95;60.28;;;;;;;1.46;100.00;102615.03;4967522;28;20059;-80
2022/03/17 05:52:52;;;;;;;68.57;63.28;;;;;;;1.74;100.00;102623.69;4971806;28;20129;-81
2022/03/17 05:55:21;;;;;;;72.78;66.90;;;;;;;2.08;100.00;102634.53;4971334;28;20475;-83
2022/03/17 05:57:50;;;;;;;72.50;66.50;;;;;;;1.37;100.00;102632.16;4969653;28;20051;-80
2022/03/17 06:00:18;;;;;;;67.65;62.60;;;;;;;1.45;100.00;102636.91;4969807;28;20050;-80
2022/03/17 06:02:46;;;;;;;68.28;63.15;;;;;;;1.28;100.00;102632.75;4969529;28;20058;-81
2022/03/17 06:05:14;;;;;;;67.43;62.03;;;;;;;1.51;100.00;102628.66;4966240;28;20105;-79
2022/03/17 06:07:43;;;;;;;76.25;69.95;;;;;;;1.49;100.00;102643.63;4967209;28;20042;-79
2022/03/17 06:10:12;;;;;;;72.00;66.38;;;;;;;2.23;100.00;102643.97;4973612;28;20042;-82
2022/03/17 06:12:39;;;;;;;78.47;71.97;;;;;;;2.20;100.00;102645.03;4966336;28;20483;-79
2022/03/17 06:15:07;;;;;;;72.72;66.53;;;;;;;2.07;100.00;102654.66;4967834;28;20048;-82
2022/03/17 06:17:41;;;;;;;73.45;67.68;;;;;;;2.19;100.00;102656.47;4969900;28;20053;-80
2022/03/17 06:20:09;;;;;;;71.78;66.20;;;;;;;2.38;100.00;102650.78;4971000;28;20047;-81
2022/03/17 06:22:39;;;;;;;63.92;59.00;;;;;;;2.26;100.00;102662.97;4971221;28;20054;-82
2022/03/17 06:25:07;;;;;;;61.10;56.00;;;;;;;2.01;100.00;102674.25;4965727;28;20055;-81
2022/03/17 06:27:35;;;;;;;61.15;56.25;;;;;;;1.84;100.00;102682.38;4976152;28;20046;-83
2022/03/17 06:30:02;;;;;;;64.30;59.30;;;;;;;1.61;100.00;102686.53;4970965;28;20228;-82
2022/03/17 06:32:29;;;;;;;71.00;64.40;;;;;;;1.35;100.00;102698.66;4965643;28;20058;-80
2022/03/17 06:34:56;;;;;;;67.93;61.72;;;;;;;1.01;100.00;102703.41;4967424;28;20054;-80
2022/03/17 06:37:23;;;;;;;68.95;62.35;;;;;;;0.76;100.00;102709.31;4970788;28;20043;-80
2022/03/17 06:39:51;;;;;;;64.80;58.60;;;;;;;2.27;100.00;102711.84;4973409;28;20105;-82
2022/03/17 06:42:18;;;;;;;64.97;58.83;;;;;;;1.46;100.00;102718.94;4967590;28;20476;-82
2022/03/17 06:44:44;;;;;;;67.97;61.40;;;;;;;1.15;100.00;102726.09;4973764;28;20050;-80
2022/03/17 06:47:11;;;;;;;65.63;59.17;;;;;;;1.68;100.00;102727.09;4973568;28;20467;-78
2022/03/17 06:49:38;;;;;;;73.60;66.80;;;;;;;2.80;100.00;102737.16;4971545;28;20066;-79
2022/03/17 06:52:05;;;;;;;75.78;68.95;;;;;;;1.08;100.00;102730.84;4967337;28;20109;-81
2022/03/17 06:54:32;;;;;;;75.78;68.80;;;;;;;1.91;100.00;102732.66;4971835;28;20043;-80
2022/03/17 06:57:00;;;;;;;72.10;66.43;;;;;;;1.29;100.00;102733.91;4970215;28;20122;-79
2022/03/17 06:59:27;;;;;;;74.22;67.85;;;;;;;1.00;100.00;102729.63;4967755;28;20432;-80
2022/03/17 07:01:54;;;;;;;73.85;68.05;;;;;;;1.36;100.00;102727.38;4967910;28;20472;-79
2022/03/17 07:04:20;;;;;;;68.45;63.15;;;;;;;1.42;100.00;102741.84;4965795;28;20047;-83
2022/03/17 07:06:47;;;;;;;68.50;62.80;;;;;;;1.45;100.00;102740.81;4972686;28;20058;-79
2022/03/17 07:09:14;;;;;;;67.18;60.90;;;;;;;1.64;100.00;102743.13;4970345;28;20058;-81
2022/03/17 07:11:48;;;;;;;69.10;62.33;;;;;;;1.73;100.00;102738.13;4972036;28;20057;-80
2022/03/17 07:14:16;;;;;;;71.32;64.82;;;;;;;2.19;100.00;102736.91;4976454;28;20054;-79
2022/03/17 07:16:44;;;;;;;70.05;64.05;;;;;;;1.73;100.00;102743.38;4975388;28;20131;-79
2022/03/17 07:19:14;;;;;;;74.47;66.65;;;;;;;1.99;100.00;102741.66;4960623;28;20055;-79
2022/03/17 07:21:40;;;;;;;69.35;64.03;;;;;;;2.04;100.00;102742.22;4970779;28;20051;-78
2022/03/17 07:24:09;;;;;;;73.15;66.75;;;;;;;2.39;100.00;102739.03;4964058;28;20133;-80
2022/03/17 07:26:43;;;;;;;74.72;69.32;;;;;;;3.05;100.00;102738.91;4972274;28;20054;-80
2022/03/17 07:29:09;;;;;;;73.05;67.97;;;;;;;2.96;100.00;102746.47;4964002;28;20066;-80
2022/03/17 07:31:38;;;;;;;69.50;64.43;;;;;;;3.27;100.00;102746.13;4972141;28;20038;-80
2022/03/17 07:34:05;;;;;;;64.47;59.72;;;;;;;3.10;100.00;102750.78;4965794;28;20043;-80
2022/03/17 07:36:32;;;;;;;71.53;66.43;;;;;;;3.54;100.00;102745.94;4971894;28;20054;-79
2022/03/17 07:39:01;;;;;;;70.05;64.85;;;;;;;3.33;100.00;102745.69;4963178;28;20048;-80
2022/03/17 07:41:27;;;;;;;70.35;65.15;;;;;;;3.71;100.00;102742.09;4966222;28;20111;-80
2022/03/17 07:43:54;;;;;;;73.03;68.07;;;;;;;3.84;100.00;102745.50;4966936;28;20452;-80
2022/03/17 07:46:21;;;;;;;70.35;65.55;;;;;;;3.80;100.00;102741.44;4974589;28;20549;-79
2022/03/17 07:48:49;;;;;;;74.68;68.95;;;;;;;4.13;100.00;102746.00;4969910;28;20105;-81
2022/03/17 07:51:16;;;;;;;79.50;73.50;;;;;;;4.43;100.00;102739.41;4969180;28;20043;-79
2022/03/17 07:53:44;;;;;;;77.40;71.47;;;;;;;4.28;100.00;102744.03;4968350;28;20047;-79
2022/03/17 07:56:14;;;;;;;69.18;63.92;;;;;;;4.42;100.00;102748.22;4972201;28;20475;-80
2022/03/17 07:58:41;;;;;;;69.28;64.78;;;;;;;4.65;100.00;102747.31;4970651;28;20109;-79
2022/03/17 08:01:08;;;;;;;76.32;70.82;;;;;;;5.05;100.00;102755.63;4975299;28;20050;-81
2022/03/17 08:03:58;;;;;;;74.88;69.55;;;;;;;5.30;100.00;102750.22;4969777;28;20506;-79
2022/03/17 08:06:25;;;;;;;77.07;70.80;;;;;;;5.15;100.00;102755.75;4972118;28;20058;-80
2022/03/17 08:08:52;;;;;;;80.50;74.47;;;;;;;5.07;100.00;102759.94;4965473;28;20082;-78
2022/03/17 08:11:19;;;;;;;75.07;69.57;;;;;;;4.96;100.00;102751.09;4968204;28;20047;-79
2022/03/17 08:13:47;;;;;;;76.97;71.13;;;;;;;5.19;100.00;102751.91;4968408;28;20057;-79
2022/03/17 08:16:14;;;;;;;79.97;74.38;;;;;;;4.91;100.00;102769.03;4958752;28;20047;-79
2022/03/17 08:18:41;;;;;;;69.50;64.40;;;;;;;4.94;100.00;102762.69;4969973;28;20451;-79
2022/03/17 08:21:09;;;;;;;66.47;61.35;;;;;;;4.91;100.00;102771.66;4966451;28;20515;-80
2022/03/17 08:23:36;;;;;;;69.50;64.30;;;;;;;4.89;100.00;102768.28;4969733;28;20109;-79
2022/03/17 08:26:03;;;;;;;69.82;64.78;;;;;;;4.82;100.00;102781.09;4972695;28;20431;-79
2022/03/17 08:28:30;;;;;;;74.38;69.28;;;;;;;5.38;100.00;102779.44;4967768;28;20550;-79
2022/03/17 08:30:56;;;;;;;78.10;72.20;;;;;;;5.76;100.00;102773.72;4970528;28;20118;-81
2022/03/17 08:33:24;;;;;;;78.70;73.10;;;;;;;5.57;100.00;102779.66;4973562;28;20554;-79
2022/03/17 08:35:52;;;;;;;73.00;67.57;;;;;;;5.31;100.00;102784.34;4972668;28;20126;-80
2022/03/17 08:38:20;;;;;;;72.15;66.95;;;;;;;5.36;100.00;102789.28;4969955;28;20534;-79
2022/03/17 08:40:47;;;;;;;75.88;70.40;;;;;;;5.56;100.00;102782.41;4969727;28;20104;-81
2022/03/17 08:43:14;;;;;;;77.28;71.78;;;;;;;5.37;100.00;102783.88;4967598;28;20070;-81
2022/03/17 08:51:22;;;;;;;45.78;43.38;;;;;;;6.12;100.00;102777.00;4904796;29;20060;-80
2022/03/17 08:53:50;;;;;;;44.45;41.95;;;;;;;6.18;97.85;102777.34;4949548;28;20044;-80
2022/03/17 08:56:17;;;;;;;46.65;44.03;;;;;;;6.45;92.29;102780.47;4977145;28;20153;-79
2022/03/17 08:58:44;;;;;;;48.13;45.15;;;;;;;6.76;93.99;102779.53;4968913;28;20066;-81
2022/03/17 09:01:11;;;;;;;46.85;43.50;;;;;;;7.53;86.10;102784.31;4981203;28;20059;-79
2022/03/17 09:03:38;;;;;;;46.10;43.60;;;;;;;7.69;88.32;102789.06;4974193;28;20094;-81
2022/03/17 09:06:05;;;;;;;47.50;45.00;;;;;;;7.19;74.37;102786.41;4978729;28;20098;-81
2022/03/17 09:08:32;;;;;;;47.13;44.58;;;;;;;7.39;76.43;102794.41;4974133;28;20065;-79
2022/03/17 09:11:00;;;;;;;47.40;44.70;;;;;;;6.84;75.20;102790.28;4976563;28;20054;-81
2022/03/17 09:13:28;;;;;;;51.08;48.15;;;;;;;6.80;71.61;102796.78;4967370;28;20051;-81
2022/03/17 09:15:56;;;;;;;50.72;47.42;;;;;;;7.19;74.48;102794.34;4982188;28;20082;-81
2022/03/17 09:18:23;;;;;;;48.05;45.45;;;;;;;7.13;70.15;102784.28;4973563;28;20065;-79
2022/03/17 09:20:50;;;;;;;50.40;47.70;;;;;;;8.10;72.32;102792.44;4973285;28;20057;-79
2022/03/17 09:23:23;;;;;;;52.88;49.92;;;;;;;7.51;83.47;102803.91;4971376;28;20113;-81
2022/03/17 09:25:49;;;;;;;;;;;;;;;7.31;83.12;102790.63;4977157;28;20471;-79
2022/03/17 09:28:18;;;;;;;52.58;49.47;;;;;;;7.63;75.15;102791.44;4969861;28;19934;-80
2022/03/17 09:30:44;;;;;;;50.63;47.70;;;;;;;7.58;73.56;102794.47;4980999;28;20369;-80
2022/03/17 09:33:11;;;;;;;49.67;46.95;;;;;;;8.01;71.98;102798.56;4966079;28;20052;-81
2022/03/17 09:35:38;;;;;;;52.17;49.47;;;;;;;7.76;70.67;102794.66;4980510;28;20495;-80
2022/03/17 09:38:07;;;;;;;47.08;44.45;;;;;;;7.48;64.79;102804.19;4971078;28;20492;-80
2022/03/17 09:40:35;;;;;;;44.40;42.00;;;;;;;7.49;67.40;102798.75;4972553;28;20055;-80
2022/03/17 09:43:21;;;;;;;46.45;44.05;;;;;;;7.44;63.29;102800.13;4974996;28;20086;-79
2022/03/17 09:45:52;;;;;;;49.80;47.10;;;;;;;8.45;66.55;102796.38;4970261;28;20393;-80
2022/03/17 09:48:23;;;;;;;50.40;47.90;;;;;;;7.59;76.12;102804.06;4971158;28;20061;-81
2022/03/17 09:50:55;;;;;;;51.10;48.50;;;;;;;7.65;69.23;102797.41;4965621;28;20053;-80
2022/03/17 09:53:22;;;;;;;;;;;;;;;7.33;80.50;102798.44;4973368;28;20117;-78
2022/03/17 09:55:50;;;;;;;48.72;46.10;;;;;;;7.93;74.45;102809.84;4980479;28;19958;-80
2022/03/17 09:58:17;;;;;;;51.63;48.53;;;;;;;8.21;60.09;102799.41;4975772;28;20050;-80
2022/03/17 10:00:52;;;;;;;52.97;50.13;;;;;;;7.75;57.89;102806.22;4981025;28;20125;-79
2022/03/17 10:03:21;;;;;;;52.63;49.70;;;;;;;7.24;58.80;102820.38;4971003;28;20138;-79
2022/03/17 10:05:50;;;;;;;49.75;46.75;;;;;;;6.74;59.79;102807.03;4966503;28;20051;-80
2022/03/17 10:08:20;;;;;;;55.25;51.33;;;;;;;6.37;58.61;102812.75;4976445;28;20074;-81
2022/03/17 10:10:47;;;;;;;45.47;42.90;;;;;;;7.16;61.86;102815.75;4976199;28;20399;-79
2022/03/17 10:13:16;;;;;;;44.63;42.05;;;;;;;7.29;62.40;102821.66;4980221;28;20046;-80
2022/03/17 10:15:45;;;;;;;45.63;43.08;;;;;;;7.17;57.93;102817.44;4980620;28;20057;-80
2022/03/17 10:18:23;;;;;;;46.15;43.42;;;;;;;6.94;59.70;102815.91;4968262;28;20086;-80
2022/03/17 10:21:06;;;;;;;50.97;48.28;;;;;;;7.19;66.13;102831.34;4979032;28;20046;-79
2022/03/17 10:23:33;;;;;;;49.33;46.42;;;;;;;6.51;58.47;102823.03;4973036;28;20473;-80
2022/03/17 10:25:59;;;;;;;49.88;46.90;;;;;;;7.40;68.46;102828.63;4975777;28;20054;-79
2022/03/17 10:28:28;;;;;;;51.47;48.60;;;;;;;6.98;57.57;102834.00;4975424;28;20058;-80
2022/03/17 10:31:06;;;;;;;50.40;47.35;;;;;;;7.14;76.06;102841.50;4974163;28;20499;-78
2022/03/17 10:33:35;;;;;;;48.13;45.53;;;;;;;7.34;83.10;102830.00;4974218;28;20059;-79
2022/03/17 10:36:20;;;;;;;47.28;44.67;;;;;;;7.23;72.57;102831.91;4969867;28;20121;-79
2022/03/17 10:38:49;;;;;;;49.90;46.85;;;;;;;7.18;70.67;102827.03;4977382;28;20109;-80
2022/03/17 10:41:17;;;;;;;47.47;44.67;;;;;;;6.77;60.19;102826.09;4978807;28;20065;-79
2022/03/17 10:43:45;;;;;;;50.30;47.53;;;;;;;7.26;61.95;102824.56;4977703;28;20471;-81
2022/03/17 10:46:15;;;;;;;49.50;46.78;;;;;;;7.35;61.71;102828.19;4969113;28;20708;-79
2022/03/17 10:48:55;;;;;;;50.00;47.20;;;;;;;7.52;75.37;102822.28;4971456;28;20069;-80
2022/03/17 10:51:33;;;;;;;48.65;46.10;;;;;;;7.33;70.30;102825.69;4969191;28;20055;-81
2022/03/17 10:54:08;;;;;;;49.15;46.35;;;;;;;7.04;57.22;102819.44;4969116;28;20136;-79
2022/03/17 10:56:39;;;;;;;48.60;45.85;;;;;;;7.01;61.00;102824.97;4973731;28;20372;-79
2022/03/17 10:59:08;;;;;;;49.72;46.72;;;;;;;6.68;58.10;102828.69;4977135;28;20051;-79
2022/03/17 11:01:56;;;;;;;50.60;47.78;;;;;;;6.63;61.67;102822.00;4974920;28;20138;-79
2022/03/17 11:04:26;;;;;;;51.47;48.47;;;;;;;6.17;57.16;102819.66;4959150;28;20046;-77
2022/03/17 11:06:54;;;;;;;46.90;44.30;;;;;;;6.19;57.10;102826.50;4972472;28;20055;-77
2022/03/17 11:09:23;;;;;;;52.35;49.10;;;;;;;5.89;56.03;102815.78;4973744;28;20125;-78
2022/03/17 11:11:50;;;;;;;50.90;48.10;;;;;;;6.20;57.37;102824.69;4973686;28;20475;-79
2022/03/17 11:14:18;;;;;;;51.55;48.60;;;;;;;5.92;56.55;102826.06;4977790;28;20551;-78
2022/03/17 11:16:50;;;;;;;47.80;45.10;;;;;;;5.94;57.97;102825.03;4976516;28;20065;-77
2022/03/17 11:19:18;;;;;;;48.10;45.10;;;;;;;6.22;58.14;102814.84;4967208;28;20137;-78
2022/03/17 11:21:48;;;;;;;48.50;45.60;;;;;;;5.73;55.25;102824.09;4973182;28;20046;-78
2022/03/17 11:24:20;;;;;;;48.65;45.95;;;;;;;6.06;56.76;102817.91;4972874;28;20057;-78
2022/03/17 11:26:47;;;;;;;42.50;39.90;;;;;;;6.04;59.90;102817.19;4972448;28;20055;-79
2022/03/17 11:29:15;;;;;;;46.17;43.17;;;;;;;6.04;57.76;102824.28;4974618;28;20455;-78